createdAt,value
2018-09-04T00:00:36.978Z,1.83
2018-09-04T00:03:05.867Z,2.27
2018-09-04T00:05:34.757Z,2.33
2018-09-04T00:08:03.537Z,2.20
2018-09-04T00:10:32.280Z,1.97
2018-09-04T00:13:01.039Z,2.00
2018-09-04T00:15:29.835Z,2.63
2018-09-04T00:17:58.579Z,2.10
2018-09-04T00:20:27.336Z,1.90
2018-09-04T00:22:56.164Z,1.90
2018-09-04T00:25:24.839Z,1.70
2018-09-04T00:27:53.621Z,2.20
2018-09-04T00:30:22.441Z,2.10
2018-09-04T00:32:51.304Z,2.50
2018-09-04T00:35:20.031Z,2.20
2018-09-04T00:37:48.769Z,2.10
2018-09-04T00:40:17.571Z,2.53
2018-09-04T00:42:46.380Z,1.40
2018-09-04T00:45:15.112Z,1.90
2018-09-04T00:47:43.910Z,2.07
2018-09-04T00:50:12.656Z,2.27
2018-09-04T00:52:41.333Z,2.37
2018-09-04T00:55:10.144Z,2.57
2018-09-04T00:57:38.801Z,1.93
2018-09-04T01:00:07.779Z,2.97
2018-09-04T01:02:36.564Z,2.17
2018-09-04T01:05:05.402Z,1.80
2018-09-04T01:07:34.162Z,2.60
2018-09-04T01:10:02.890Z,2.17
2018-09-04T01:12:31.688Z,1.93
2018-09-04T01:15:00.420Z,2.33
2018-09-04T01:17:29.207Z,1.97
2018-09-04T01:19:57.937Z,1.87
2018-09-04T01:22:26.623Z,1.83
2018-09-04T01:24:55.430Z,2.47
2018-09-04T01:27:24.251Z,2.40
2018-09-04T01:29:52.884Z,1.83
2018-09-04T01:32:21.608Z,2.77
2018-09-04T01:34:50.302Z,2.07
2018-09-04T01:37:19.025Z,2.50
2018-09-04T01:39:47.813Z,3.07
2018-09-04T01:42:16.608Z,2.20
2018-09-04T01:44:45.371Z,2.27
2018-09-04T01:47:14.182Z,2.70
2018-09-04T01:49:42.862Z,3.00
2018-09-04T01:52:11.531Z,2.27
2018-09-04T01:54:40.304Z,3.20
2018-09-04T01:57:09.039Z,2.73
2018-09-04T01:59:37.733Z,2.07
2018-09-04T02:02:06.564Z,2.20
2018-09-04T02:04:35.276Z,2.17
2018-09-04T02:07:04.217Z,2.23
2018-09-04T02:09:32.935Z,2.63
2018-09-04T02:12:01.676Z,2.23
2018-09-04T02:14:30.333Z,3.23
2018-09-04T02:16:59.116Z,2.13
2018-09-04T02:19:27.848Z,2.50
2018-09-04T02:21:56.531Z,2.23
2018-09-04T02:24:25.273Z,2.90
2018-09-04T02:26:53.986Z,2.83
2018-09-04T02:29:22.748Z,2.87
2018-09-04T02:31:51.385Z,1.90
2018-09-04T02:34:20.125Z,2.60
2018-09-04T02:36:48.867Z,2.20
2018-09-04T02:39:17.685Z,2.60
2018-09-04T02:41:46.476Z,2.10
2018-09-04T02:44:15.340Z,3.20
2018-09-04T02:46:44.031Z,3.40
2018-09-04T02:49:12.755Z,2.47
2018-09-04T02:51:41.447Z,2.80
2018-09-04T02:54:10.525Z,3.00
2018-09-04T02:56:39.261Z,2.50
2018-09-04T02:59:08.087Z,3.90
2018-09-04T03:01:36.758Z,3.13
2018-09-04T03:04:05.517Z,3.73
2018-09-04T03:06:34.282Z,3.63
2018-09-04T03:09:03.073Z,2.77
2018-09-04T03:11:31.758Z,3.03
2018-09-04T03:14:00.609Z,1.90
2018-09-04T03:16:29.279Z,3.50
2018-09-04T03:18:58.007Z,3.03
2018-09-04T03:21:26.821Z,3.50
2018-09-04T03:23:55.560Z,2.90
2018-09-04T03:26:24.419Z,3.83
2018-09-04T03:28:53.213Z,3.43
2018-09-04T03:31:21.950Z,3.70
2018-09-04T03:33:50.671Z,3.23
2018-09-04T03:36:19.508Z,4.67
2018-09-04T03:38:48.203Z,4.20
2018-09-04T03:41:16.971Z,4.97
2018-09-04T03:43:45.686Z,4.50
2018-09-04T03:46:14.436Z,3.10
2018-09-04T03:48:43.185Z,3.43
2018-09-04T03:51:11.976Z,4.50
2018-09-04T03:53:40.709Z,3.60
2018-09-04T03:56:09.428Z,4.97
2018-09-04T03:58:38.197Z,4.43
2018-09-04T04:01:06.886Z,4.03
2018-09-04T04:03:35.642Z,3.97
2018-09-04T04:06:04.517Z,4.27
2018-09-04T04:08:33.311Z,4.40
2018-09-04T04:11:02.310Z,3.23
2018-09-04T04:13:31.061Z,4.63
2018-09-04T04:15:59.857Z,3.87
2018-09-04T04:18:28.581Z,4.63
2018-09-04T04:21:00.102Z,4.07
2018-09-04T04:23:29.743Z,4.30
2018-09-04T04:26:00.997Z,4.17
2018-09-04T04:28:29.748Z,5.07
2018-09-04T04:30:58.480Z,5.10
2018-09-04T04:33:27.207Z,3.53
2018-09-04T04:35:55.926Z,5.73
2018-09-04T04:38:24.619Z,4.93
2018-09-04T04:40:53.230Z,5.53
2018-09-04T04:43:21.967Z,4.80
2018-09-04T04:45:50.801Z,4.70
2018-09-04T04:48:19.542Z,5.03
2018-09-04T04:50:48.280Z,4.10
2018-09-04T04:53:16.942Z,4.83
2018-09-04T04:55:45.712Z,3.77
2018-09-04T04:58:14.595Z,3.93
2018-09-04T05:00:43.261Z,4.03
2018-09-04T05:03:12.060Z,5.10
2018-09-04T05:05:40.761Z,3.67
2018-09-04T05:08:09.507Z,5.27
2018-09-04T05:10:38.216Z,3.97
2018-09-04T05:13:07.163Z,3.37
2018-09-04T05:15:35.929Z,3.67
2018-09-04T05:18:04.635Z,3.00
2018-09-04T05:20:33.512Z,3.53
2018-09-04T05:23:02.379Z,3.43
2018-09-04T05:25:31.157Z,3.20
2018-09-04T05:27:59.808Z,4.03
2018-09-04T05:30:28.600Z,4.27
2018-09-04T05:33:09.649Z,3.00
2018-09-04T05:35:48.614Z,3.37
2018-09-04T05:38:17.356Z,3.63
2018-09-04T05:40:46.026Z,2.80
2018-09-04T05:43:22.172Z,2.90
2018-09-04T05:45:50.978Z,2.30
2018-09-04T05:48:19.755Z,2.57
2018-09-04T05:50:48.621Z,2.80
2018-09-04T05:53:17.527Z,3.13
2018-09-04T05:55:46.416Z,2.93
2018-09-04T05:58:15.210Z,2.47
2018-09-04T06:00:46.548Z,2.53
2018-09-04T06:03:15.416Z,2.43
2018-09-04T06:05:44.115Z,2.50
2018-09-04T06:08:12.984Z,2.00
2018-09-04T06:10:41.754Z,2.70
2018-09-04T06:13:10.512Z,2.23
2018-09-04T06:15:39.418Z,3.40
2018-09-04T06:18:08.144Z,2.80
2018-09-04T06:20:36.877Z,3.70
2018-09-04T06:23:06.027Z,3.10
2018-09-04T06:25:34.744Z,3.00
2018-09-04T06:28:04.112Z,3.70
2018-09-04T06:30:33.595Z,3.50
2018-09-04T06:33:02.270Z,2.93
2018-09-04T06:35:31.203Z,3.73
2018-09-04T06:37:59.912Z,3.57
2018-09-04T06:40:28.614Z,2.87
2018-09-04T06:42:57.288Z,3.23
2018-09-04T06:45:26.120Z,3.13
2018-09-04T06:47:54.857Z,3.07
2018-09-04T06:50:23.796Z,3.17
2018-09-04T06:52:52.608Z,3.53
2018-09-04T06:55:21.381Z,3.73
2018-09-04T06:57:50.152Z,3.50
2018-09-04T07:00:18.940Z,4.47
2018-09-04T07:02:47.776Z,4.10
2018-09-04T07:05:16.539Z,3.10
2018-09-04T07:07:45.335Z,28.03
2018-09-04T07:10:14.043Z,25.30
2018-09-04T07:12:42.757Z,27.40
2018-09-04T07:15:11.617Z,26.60
2018-09-04T07:17:40.322Z,26.93
2018-09-04T07:20:09.129Z,26.67
2018-09-04T07:22:38.012Z,28.57
2018-09-04T07:25:06.936Z,28.77
2018-09-04T07:27:35.682Z,28.30
2018-09-04T07:30:05.928Z,28.30
2018-09-04T07:32:34.630Z,30.70
2018-09-04T07:35:03.356Z,30.97
2018-09-04T07:37:32.044Z,26.77
2018-09-04T07:40:00.834Z,29.50
2018-09-04T07:42:29.721Z,28.07
2018-09-04T07:44:58.433Z,27.70
2018-09-04T07:47:27.091Z,27.82
2018-09-04T07:49:55.909Z,27.30
2018-09-04T07:52:24.574Z,28.98
2018-09-04T07:54:53.308Z,30.12
2018-09-04T07:57:22.039Z,28.95
2018-09-04T07:59:50.695Z,28.30
2018-09-04T08:02:19.331Z,30.45
2018-09-04T08:04:48.156Z,25.43
2018-09-04T08:07:16.961Z,24.47
2018-09-04T08:09:45.654Z,23.07
2018-09-04T08:12:14.489Z,24.47
2018-09-04T08:14:43.263Z,22.27
2018-09-04T08:17:12.461Z,22.40
2018-09-04T08:19:41.233Z,22.98
2018-09-04T08:22:09.982Z,20.12
2018-09-04T08:24:38.758Z,20.77
2018-09-04T08:27:07.455Z,21.42
2018-09-04T08:29:36.194Z,20.37
2018-09-04T08:32:04.867Z,20.48
2018-09-04T08:34:33.585Z,21.25
2018-09-04T08:37:02.467Z,19.45
2018-09-04T08:39:31.128Z,21.60
2018-09-04T08:41:59.811Z,20.45
2018-09-04T08:44:28.695Z,20.43
2018-09-04T08:46:57.503Z,19.27
2018-09-04T08:49:26.253Z,17.48
2018-09-04T08:51:54.966Z,17.98
2018-09-04T08:54:23.795Z,18.48
2018-09-04T08:56:52.747Z,18.77
2018-09-04T08:59:21.590Z,18.75
2018-09-04T09:01:50.615Z,15.50
2018-09-04T09:04:19.326Z,15.58
2018-09-04T09:06:48.107Z,16.20
2018-09-04T09:09:16.847Z,16.00
2018-09-04T09:11:45.685Z,15.70
2018-09-04T09:14:14.415Z,15.28
2018-09-04T09:16:43.100Z,15.13
2018-09-04T09:19:11.890Z,17.12
2018-09-04T09:21:40.626Z,16.02
2018-09-04T09:24:09.389Z,16.02
2018-09-04T09:26:38.180Z,16.50
2018-09-04T09:29:07.086Z,14.80
2018-09-04T09:31:35.833Z,15.18
2018-09-04T09:34:04.505Z,14.83
2018-09-04T09:36:33.309Z,15.68
2018-09-04T09:39:02.138Z,15.25
2018-09-04T09:41:30.912Z,16.35
2018-09-04T09:43:59.676Z,18.12
2018-09-04T09:46:28.381Z,16.40
2018-09-04T09:48:57.114Z,17.50
2018-09-04T09:51:25.810Z,16.90
2018-09-04T09:53:54.529Z,16.52
2018-09-04T09:56:23.342Z,16.17
2018-09-04T09:58:52.023Z,18.27
2018-09-04T10:01:24.956Z,17.52
2018-09-04T10:04:06.799Z,17.10
2018-09-04T10:06:35.350Z,15.53
2018-09-04T10:09:05.302Z,15.00
2018-09-04T10:11:34.187Z,14.07
2018-09-04T10:14:02.992Z,14.10
2018-09-04T10:16:31.784Z,13.35
2018-09-04T10:19:00.512Z,12.25
2018-09-04T10:21:29.340Z,13.30
2018-09-04T10:23:58.179Z,12.68
2018-09-04T10:26:27.152Z,12.55
2018-09-04T10:28:55.946Z,15.00
2018-09-04T10:31:24.717Z,12.58
2018-09-04T10:33:53.523Z,11.43
2018-09-04T10:36:22.420Z,10.20
2018-09-04T10:38:55.240Z,11.85
2018-09-04T10:41:24.147Z,11.73
2018-09-04T10:43:52.925Z,10.08
2018-09-04T10:46:21.581Z,10.00
2018-09-04T10:48:50.245Z,9.25
2018-09-04T10:51:18.920Z,12.93
2018-09-04T10:53:47.565Z,10.00
2018-09-04T10:56:16.395Z,9.23
2018-09-04T10:58:45.132Z,10.03
2018-09-04T11:01:13.820Z,9.10
2018-09-04T11:03:42.540Z,9.25
2018-09-04T11:06:11.195Z,9.23
2018-09-04T11:08:39.944Z,10.10
2018-09-04T11:11:08.645Z,10.18
2018-09-04T11:13:37.312Z,12.47
2018-09-04T11:16:05.974Z,10.13
2018-09-04T11:18:34.372Z,11.38
2018-09-04T11:21:03.057Z,11.48
2018-09-04T11:23:31.774Z,11.03
2018-09-04T11:26:00.399Z,10.32
2018-09-04T11:28:29.016Z,10.05
2018-09-04T11:30:57.743Z,10.95
2018-09-04T11:33:26.402Z,9.45
2018-09-04T11:35:55.132Z,9.90
2018-09-04T11:38:23.750Z,10.43
2018-09-04T11:40:52.408Z,9.65
2018-09-04T11:43:21.020Z,9.03
2018-09-04T11:45:49.712Z,9.60
2018-09-04T11:48:18.383Z,10.20
2018-09-04T11:50:47.250Z,9.35
2018-09-04T11:53:15.919Z,9.25
2018-09-04T11:55:44.599Z,9.28
2018-09-04T11:58:13.748Z,8.70
2018-09-04T12:00:44.831Z,8.93
2018-09-04T12:03:14.659Z,8.50
2018-09-04T12:05:43.407Z,8.43
2018-09-04T12:08:12.146Z,8.78
2018-09-04T12:10:41.170Z,7.87
2018-09-04T12:13:09.903Z,9.08
2018-09-04T12:15:40.470Z,7.92
2018-09-04T12:18:10.821Z,8.08
2018-09-04T12:21:11.720Z,7.80
2018-09-04T12:23:40.735Z,7.28
2018-09-04T12:26:10.534Z,6.87
2018-09-04T12:28:39.205Z,7.85
2018-09-04T12:31:08.635Z,7.80
2018-09-04T12:33:37.328Z,7.87
2018-09-04T12:36:06.197Z,7.97
2018-09-04T12:38:36.294Z,7.53
2018-09-04T12:41:15.448Z,7.35
2018-09-04T12:43:44.114Z,7.60
2018-09-04T12:46:12.831Z,7.28
2018-09-04T12:48:45.573Z,6.90
2018-09-04T12:51:14.188Z,7.65
2018-09-04T12:53:42.879Z,8.80
2018-09-04T12:56:11.558Z,6.80
2018-09-04T12:58:40.314Z,7.30
2018-09-04T13:01:08.966Z,7.15
2018-09-04T13:03:37.608Z,7.65
2018-09-04T13:06:06.302Z,7.70
2018-09-04T13:08:35.355Z,8.75
2018-09-04T13:11:04.085Z,7.20
2018-09-04T13:13:32.739Z,7.12
2018-09-04T13:16:01.996Z,6.92
2018-09-04T13:18:31.030Z,7.10
2018-09-04T13:21:02.000Z,8.13
2018-09-04T13:23:31.307Z,6.62
2018-09-04T13:25:59.968Z,6.70
2018-09-04T13:28:29.250Z,6.22
2018-09-04T13:30:58.004Z,7.08
2018-09-04T13:33:26.684Z,6.85
2018-09-04T13:35:55.322Z,7.35
2018-09-04T13:38:24.043Z,6.80
2018-09-04T13:40:57.998Z,6.92
2018-09-04T13:43:26.651Z,6.97
2018-09-04T13:45:55.463Z,6.50
2018-09-04T13:48:28.203Z,6.65
2018-09-04T13:50:57.296Z,7.12
2018-09-04T13:53:26.392Z,6.83
2018-09-04T13:55:55.034Z,6.30
2018-09-04T13:58:23.806Z,6.03
2018-09-04T14:00:52.495Z,7.30
2018-09-04T14:03:21.155Z,7.78
2018-09-04T14:05:49.792Z,6.35
2018-09-04T14:08:18.515Z,6.22
2018-09-04T14:10:47.167Z,5.87
2018-09-04T14:13:15.811Z,6.53
2018-09-04T14:15:44.539Z,6.65
2018-09-04T14:18:13.255Z,6.53
2018-09-04T14:20:41.882Z,5.85
2018-09-04T14:23:10.510Z,6.65
2018-09-04T14:25:39.313Z,7.42
2018-09-04T14:28:07.833Z,7.47
2018-09-04T14:30:36.645Z,7.08
2018-09-04T14:33:05.382Z,5.97
2018-09-04T14:35:34.094Z,5.83
2018-09-04T14:38:03.989Z,6.22
2018-09-04T14:40:32.669Z,6.03
2018-09-04T14:43:01.335Z,6.10
2018-09-04T14:45:30.053Z,6.28
2018-09-04T14:47:58.743Z,6.40
2018-09-04T14:50:27.377Z,6.95
2018-09-04T14:52:56.094Z,9.10
2018-09-04T14:55:24.759Z,6.15
2018-09-04T14:57:53.355Z,6.28
2018-09-04T15:00:23.388Z,6.42
2018-09-04T15:02:52.059Z,6.62
2018-09-04T15:05:20.754Z,6.10
2018-09-04T15:07:49.631Z,6.53
2018-09-04T15:10:18.315Z,6.28
2018-09-04T15:12:47.019Z,6.28
2018-09-04T15:15:15.687Z,7.55
2018-09-04T15:17:44.338Z,5.78
2018-09-04T15:20:13.035Z,7.37
2018-09-04T15:22:41.681Z,6.70
2018-09-04T15:25:10.417Z,6.12
2018-09-04T15:27:39.130Z,6.42
2018-09-04T15:30:07.900Z,7.20
2018-09-04T15:32:36.614Z,7.87
2018-09-04T15:35:05.395Z,7.00
2018-09-04T15:37:34.038Z,6.47
2018-09-04T15:40:02.699Z,5.93
2018-09-04T15:42:31.416Z,7.10
2018-09-04T15:45:00.093Z,6.00
2018-09-04T15:47:28.759Z,6.07
2018-09-04T15:49:57.434Z,6.23
2018-09-04T15:52:26.103Z,5.77
2018-09-04T15:54:54.802Z,6.00
2018-09-04T15:57:23.490Z,6.40
2018-09-04T15:59:52.140Z,6.53
2018-09-04T16:02:20.819Z,5.90
2018-09-04T16:04:49.630Z,6.67
2018-09-04T16:07:18.359Z,7.40
2018-09-04T16:09:47.040Z,6.27
2018-09-04T16:12:15.709Z,9.20
2018-09-04T16:14:44.389Z,10.77
2018-09-04T16:17:13.151Z,10.37
2018-09-04T16:19:41.829Z,10.80
2018-09-04T16:22:10.502Z,11.33
2018-09-04T16:24:39.189Z,11.37
2018-09-04T16:27:08.027Z,13.30
2018-09-04T16:29:36.728Z,12.20
2018-09-04T16:32:05.436Z,16.37
2018-09-04T16:34:34.153Z,12.50
2018-09-04T16:37:02.850Z,12.53
2018-09-04T16:39:31.924Z,11.87
2018-09-04T16:42:01.068Z,12.87
2018-09-04T16:44:29.842Z,12.43
2018-09-04T16:46:58.570Z,12.33
2018-09-04T16:49:28.115Z,14.77
2018-09-04T16:51:58.759Z,12.63
2018-09-04T16:54:28.147Z,13.40
2018-09-04T16:56:56.847Z,11.57
2018-09-04T16:59:25.571Z,11.70
2018-09-04T17:01:54.430Z,11.87
2018-09-04T17:04:23.232Z,11.07
2018-09-04T17:06:52.353Z,12.70
2018-09-04T17:09:21.021Z,14.17
2018-09-04T17:11:49.769Z,12.57
2018-09-04T17:14:18.558Z,11.80
2018-09-04T17:16:47.207Z,15.30
2018-09-04T17:19:16.733Z,14.97
2018-09-04T17:21:45.684Z,12.73
2018-09-04T17:24:14.537Z,13.77
2018-09-04T17:26:43.379Z,12.57
2018-09-04T17:29:12.212Z,14.17
2018-09-04T17:31:40.954Z,11.57
2018-09-04T17:34:09.782Z,12.17
2018-09-04T17:36:38.706Z,11.17
2018-09-04T17:39:08.704Z,13.17
2018-09-04T17:41:38.112Z,17.20
2018-09-04T17:44:07.264Z,16.40
2018-09-04T17:46:36.014Z,13.07
2018-09-04T17:49:04.900Z,12.33
2018-09-04T17:51:34.579Z,13.37
2018-09-04T17:54:03.398Z,17.40
2018-09-04T17:56:32.294Z,15.43
2018-09-04T17:59:01.485Z,14.13
2018-09-04T18:01:30.285Z,14.50
2018-09-04T18:03:58.981Z,12.87
2018-09-04T18:06:28.047Z,12.93
2018-09-04T18:08:56.834Z,11.30
2018-09-04T18:11:25.544Z,12.30
2018-09-04T18:13:54.414Z,12.80
2018-09-04T18:16:23.195Z,12.77
2018-09-04T18:18:52.113Z,15.90
2018-09-04T18:21:21.060Z,14.80
2018-09-04T18:23:49.987Z,12.67
2018-09-04T18:26:18.921Z,12.03
2018-09-04T18:28:47.634Z,11.60
2018-09-04T18:31:16.562Z,11.97
2018-09-04T18:33:45.386Z,12.43
2018-09-04T18:36:14.226Z,12.97
2018-09-04T18:38:43.120Z,12.57
2018-09-04T18:41:12.263Z,14.63
2018-09-04T18:43:41.114Z,12.37
2018-09-04T18:46:10.580Z,13.67
2018-09-04T18:48:40.050Z,13.23
2018-09-04T18:51:08.906Z,13.00
2018-09-04T18:53:37.721Z,12.13
2018-09-04T18:56:06.651Z,11.70
2018-09-04T18:58:35.339Z,12.00
2018-09-04T19:01:04.174Z,12.70
2018-09-04T19:03:33.061Z,12.03
2018-09-04T19:06:02.220Z,12.13
2018-09-04T19:08:30.961Z,12.40
2018-09-04T19:10:59.660Z,11.40
2018-09-04T19:13:28.319Z,13.30
2018-09-04T19:15:57.195Z,13.37
2018-09-04T19:18:26.337Z,12.70
2018-09-04T19:20:55.291Z,12.87
2018-09-04T19:23:24.136Z,12.83
2018-09-04T19:25:52.785Z,13.50
2018-09-04T19:28:21.555Z,15.17
2018-09-04T19:30:50.298Z,14.23
2018-09-04T19:33:19.011Z,14.17
2018-09-04T19:35:47.856Z,13.30
2018-09-04T19:38:16.683Z,13.53
2018-09-04T19:40:45.457Z,15.77
2018-09-04T19:43:14.336Z,13.80
2018-09-04T19:45:42.977Z,13.87
2018-09-04T19:48:11.827Z,13.53
2018-09-04T19:50:40.647Z,12.93
2018-09-04T19:53:09.535Z,12.80
2018-09-04T19:55:38.298Z,12.70
2018-09-04T19:58:07.164Z,12.60
2018-09-04T20:00:35.955Z,13.23
2018-09-04T20:03:04.871Z,12.03
2018-09-04T20:05:33.553Z,12.00
2018-09-04T20:08:02.502Z,11.60
2018-09-04T20:10:31.371Z,12.57
2018-09-04T20:13:00.471Z,11.97
2018-09-04T20:15:29.235Z,12.00
2018-09-04T20:17:58.153Z,12.83
2018-09-04T20:20:26.834Z,12.47
2018-09-04T20:22:55.499Z,12.23
2018-09-04T20:25:24.333Z,14.10
2018-09-04T20:27:53.093Z,12.40
2018-09-04T20:30:21.819Z,12.33
2018-09-04T20:32:50.864Z,10.53
2018-09-04T20:35:20.335Z,8.30
2018-09-04T20:37:49.273Z,8.70
2018-09-04T20:40:17.957Z,5.93
2018-09-04T20:42:46.594Z,5.10
2018-09-04T20:45:15.430Z,4.90
2018-09-04T20:47:44.387Z,4.07
2018-09-04T20:50:13.074Z,4.40
2018-09-04T20:52:41.750Z,4.10
2018-09-04T20:55:10.597Z,4.67
2018-09-04T20:57:39.581Z,2.97
2018-09-04T21:00:23.321Z,2.70
2018-09-04T21:03:03.038Z,2.93
2018-09-04T21:05:43.041Z,3.57
2018-09-04T21:08:24.644Z,3.07
2018-09-04T21:10:54.051Z,2.70
2018-09-04T21:13:22.778Z,2.97
2018-09-04T21:15:51.362Z,2.53
2018-09-04T21:18:20.135Z,2.80
2018-09-04T21:20:49.041Z,2.70
2018-09-04T21:23:17.910Z,6.50
2018-09-04T21:25:46.650Z,2.60
2018-09-04T21:28:15.340Z,2.57
2018-09-04T21:30:44.055Z,2.80
2018-09-04T21:33:12.997Z,2.90
2018-09-04T21:35:41.727Z,3.00
2018-09-04T21:38:10.413Z,2.37
2018-09-04T21:40:39.182Z,2.60
2018-09-04T21:43:07.992Z,2.50
2018-09-04T21:45:36.843Z,2.70
2018-09-04T21:48:05.999Z,2.60
2018-09-04T21:50:34.749Z,2.80
2018-09-04T21:53:03.639Z,2.50
2018-09-04T21:55:32.351Z,2.77
2018-09-04T21:58:01.060Z,2.80
2018-09-04T22:00:30.022Z,3.07
2018-09-04T22:02:58.992Z,2.90
2018-09-04T22:05:27.784Z,2.90
2018-09-04T22:07:57.601Z,3.20
2018-09-04T22:10:27.476Z,2.77
2018-09-04T22:12:56.815Z,2.90
2018-09-04T22:15:25.638Z,2.80
2018-09-04T22:17:54.759Z,3.00
2018-09-04T22:20:23.551Z,2.80
2018-09-04T22:22:52.380Z,2.57
2018-09-04T22:25:21.363Z,3.27
2018-09-04T22:27:50.051Z,3.37
2018-09-04T22:30:18.817Z,3.23
2018-09-04T22:32:47.602Z,3.60
2018-09-04T22:35:16.624Z,3.43
2018-09-04T22:37:45.282Z,3.37
2018-09-04T22:40:14.273Z,3.20
2018-09-04T22:42:43.131Z,3.30
2018-09-04T22:45:12.109Z,3.10
2018-09-04T22:47:42.087Z,3.30
2018-09-04T22:50:16.048Z,3.50
2018-09-04T22:52:45.090Z,3.10
2018-09-04T22:55:14.590Z,3.83
2018-09-04T22:57:44.337Z,3.43
2018-09-04T23:00:14.482Z,3.27
2018-09-04T23:02:43.308Z,3.23
2018-09-04T23:05:12.704Z,3.30
2018-09-04T23:07:41.610Z,3.10
2018-09-04T23:10:10.338Z,3.30
2018-09-04T23:12:39.533Z,4.07
2018-09-04T23:15:08.554Z,3.00
2018-09-04T23:17:37.577Z,3.60
2018-09-04T23:20:06.935Z,3.83
2018-09-04T23:22:35.689Z,3.63
2018-09-04T23:25:04.515Z,4.77
2018-09-04T23:27:33.507Z,4.13
2018-09-04T23:30:02.137Z,3.70
2018-09-04T23:32:31.456Z,3.90
2018-09-04T23:35:00.153Z,3.37
2018-09-04T23:37:29.139Z,3.53
2018-09-04T23:39:57.939Z,3.37
2018-09-04T23:42:31.599Z,3.50
2018-09-04T23:45:01.148Z,3.20
2018-09-04T23:47:30.347Z,3.53
2018-09-04T23:49:59.864Z,3.50
2018-09-04T23:52:28.688Z,3.67
2018-09-04T23:54:57.398Z,3.67
2018-09-04T23:57:26.311Z,3.63
2018-09-04T23:59:55.027Z,3.70
